Randolph Air Force Base
KRND : now visible

Airfield :











YOU CAN JOIN US ON...

 
LOGIN :

Register | Disclaimer

   EN    FR    IT 

 









Legend :    VFR   Marginal VFR   IFR   Intensive IFR   Very Intensive IFR
Visi :
Ceiling :
>= 8 km
>= 3000ft
5 to 8 km
1000 to 3000 ft
1500m to 5 km
500 to 1000 ft
800 to 1500m
200 to 500 ft
< 800m
< 200 ft
Symbols :   Thunderstorms  Fog  Heavy snow  Heavy precipitations  Wind > 20 kt






- Airport Elevation : 761 ft


KRND - Randolph Air Force Base

CURRENT METAR :
  • 041656Z AUTO 15003KT 10SM BKN150 28/22 A3007 RMK AO2 SLP175 T02760221 $

EXPIRED METARs :
  • 041556Z AUTO 11004KT 10SM FEW100 27/22 A3007 RMK AO2 SLP175 T02660222 $
  • 041456Z AUTO 05004KT 10SM OVC150 25/23 A3007 RMK AO2 SLP176 T02540229 52016 $

TAF TAF KRND
Valid from the 04 at 16:00 until the 05 at 22:00 UTC


041600Z 0416/0522 VRB06KT 9999 SCT160 QNH3000INS
BECMG 0418/0419 16009KT 9999 FEW050 SCT160 QNH2992INS TX37/0422Z TN23/0512Z LAST NO AMDS AFT 0423 NEXT 0510
KZHU FIR / North America



MET'MAP, your aeronautical weather chart ! - Copyright ORBIFLY December 2007 - Disclaimer

ORBIFLY MET'MAP TEAM :

Programming & Development : Alexandra Zaïnal
Concept & original design : Baudouin d'Aumeries
Assistance for programming : Marc-Olivier Méhu
Technical & hardware support : Manuel Goepfert

Contact : metmap@orbifly.com




SOURCES & CREDITS :

   NOAA       Earth
Advisory